createdAt,value
2023-04-16T00:00:23.441Z,49.67
2023-04-16T00:01:25.499Z,46.42
2023-04-16T00:02:28.435Z,50.72
2023-04-16T00:03:31.538Z,50.08
2023-04-16T00:04:34.012Z,51.03
2023-04-16T00:05:36.296Z,49.40
2023-04-16T00:06:38.208Z,49.85
2023-04-16T00:07:40.999Z,49.42
2023-04-16T00:08:43.802Z,47.95
2023-04-16T00:09:46.839Z,50.47
2023-04-16T00:10:48.718Z,52.83
2023-04-16T00:11:50.564Z,48.60
2023-04-16T00:12:52.269Z,49.40
2023-04-16T00:13:55.517Z,49.65
2023-04-16T00:14:57.336Z,49.65
2023-04-16T00:15:59.853Z,45.58
2023-04-16T00:17:02.442Z,44.35
2023-04-16T00:18:05.638Z,45.58
2023-04-16T00:19:08.480Z,48.97
2023-04-16T00:20:11.429Z,48.30
2023-04-16T00:21:13.420Z,46.53
2023-04-16T00:22:15.359Z,48.03
2023-04-16T00:23:17.681Z,47.00
2023-04-16T00:24:19.593Z,49.58
2023-04-16T00:25:21.734Z,48.00
2023-04-16T00:26:25.402Z,52.17
2023-04-16T00:27:28.850Z,50.63
2023-04-16T00:28:33.849Z,47.30
2023-04-16T00:29:36.545Z,45.92
2023-04-16T00:30:38.129Z,43.53
2023-04-16T00:31:41.076Z,44.45
2023-04-16T00:32:45.188Z,47.85
2023-04-16T00:33:47.103Z,47.72
2023-04-16T00:34:48.718Z,48.25
2023-04-16T00:35:52.291Z,49.17
2023-04-16T00:36:54.237Z,49.88
2023-04-16T00:37:56.408Z,50.70
2023-04-16T00:38:58.845Z,47.20
2023-04-16T00:40:01.600Z,47.60
2023-04-16T00:41:03.358Z,45.08
2023-04-16T00:42:05.392Z,48.05
2023-04-16T00:43:07.823Z,48.33
2023-04-16T00:44:10.767Z,44.47
2023-04-16T00:45:14.294Z,44.85
2023-04-16T00:46:17.145Z,43.90
2023-04-16T00:47:20.661Z,47.90
2023-04-16T00:48:22.837Z,50.83
2023-04-16T00:49:25.819Z,47.35
2023-04-16T00:50:30.568Z,45.53
2023-04-16T00:51:33.284Z,49.07
2023-04-16T00:52:36.701Z,46.25
2023-04-16T00:53:38.830Z,42.13
2023-04-16T00:54:41.305Z,41.90
2023-04-16T00:55:43.956Z,49.05
2023-04-16T00:56:46.936Z,48.88
2023-04-16T00:57:50.135Z,48.00
2023-04-16T00:58:51.821Z,46.30
2023-04-16T00:59:54.629Z,46.67
2023-04-16T01:00:58.271Z,47.75
2023-04-16T01:02:00.185Z,48.55
2023-04-16T01:03:02.397Z,50.10
2023-04-16T01:04:04.658Z,52.38
2023-04-16T01:05:07.137Z,51.35
2023-04-16T01:06:10.948Z,48.85
2023-04-16T01:07:12.734Z,47.97
2023-04-16T01:08:22.241Z,52.83
2023-04-16T01:09:24.072Z,46.10
2023-04-16T01:10:26.086Z,49.00
2023-04-16T01:11:28.439Z,51.22
2023-04-16T01:12:32.053Z,51.22
2023-04-16T01:13:35.444Z,46.70
2023-04-16T01:14:37.978Z,49.28
2023-04-16T01:15:41.410Z,49.47
2023-04-16T01:16:43.470Z,50.88
2023-04-16T01:17:48.930Z,52.92
2023-04-16T01:18:50.924Z,50.90
2023-04-16T01:19:52.642Z,52.65
2023-04-16T01:20:54.257Z,49.38
2023-04-16T01:21:56.199Z,54.50
2023-04-16T01:22:58.051Z,50.40
2023-04-16T01:24:04.179Z,50.70
2023-04-16T01:25:06.700Z,49.55
2023-04-16T01:26:08.700Z,48.65
2023-04-16T01:27:11.699Z,53.03
2023-04-16T01:28:14.268Z,49.45
2023-04-16T01:29:17.324Z,47.13
2023-04-16T01:30:19.266Z,51.67
2023-04-16T01:31:21.720Z,51.90
2023-04-16T01:32:24.519Z,52.42
2023-04-16T01:33:26.354Z,49.08
2023-04-16T01:34:31.368Z,48.88
2023-04-16T01:35:33.278Z,51.80
2023-04-16T01:36:34.968Z,50.58
2023-04-16T01:37:37.137Z,47.53
2023-04-16T01:38:39.305Z,51.53
2023-04-16T01:39:41.385Z,51.53
2023-04-16T01:40:43.668Z,50.70
2023-04-16T01:41:45.602Z,50.13
2023-04-16T01:42:47.449Z,47.85
2023-04-16T01:43:49.027Z,46.13
2023-04-16T01:44:50.848Z,53.47
2023-04-16T01:45:59.718Z,50.10
2023-04-16T01:47:02.792Z,52.53
2023-04-16T01:48:05.224Z,54.30
2023-04-16T01:49:07.714Z,47.88
2023-04-16T01:50:10.246Z,52.13
2023-04-16T01:51:12.218Z,54.50
2023-04-16T01:52:14.333Z,55.47
2023-04-16T01:53:16.205Z,50.00
2023-04-16T01:54:19.652Z,50.47
2023-04-16T01:55:23.711Z,53.28
2023-04-16T01:56:25.945Z,48.78
2023-04-16T01:57:28.119Z,48.17
2023-04-16T01:58:39.257Z,50.03
2023-04-16T01:59:41.066Z,50.40
2023-04-16T02:00:43.302Z,50.22
2023-04-16T02:01:45.096Z,49.25
2023-04-16T02:02:47.419Z,51.45
2023-04-16T02:03:49.517Z,51.90
2023-04-16T02:04:53.574Z,51.13
2023-04-16T02:05:55.228Z,43.65
2023-04-16T02:06:57.255Z,52.63
2023-04-16T02:07:58.944Z,49.80
2023-04-16T02:09:02.081Z,52.03
2023-04-16T02:10:05.336Z,51.88
2023-04-16T02:11:07.752Z,52.47
2023-04-16T02:12:11.491Z,52.65
2023-04-16T02:13:15.394Z,51.72
2023-04-16T02:14:17.736Z,53.72
2023-04-16T02:15:19.615Z,54.88
2023-04-16T02:16:21.389Z,57.00
2023-04-16T02:17:23.398Z,53.45
2023-04-16T02:18:25.720Z,53.83
2023-04-16T02:19:27.784Z,54.33
2023-04-16T02:20:29.672Z,56.20
2023-04-16T02:21:34.773Z,53.10
2023-04-16T02:22:36.728Z,55.47
2023-04-16T02:23:41.086Z,55.08
2023-04-16T02:24:42.969Z,54.75
2023-04-16T02:25:49.592Z,54.53
2023-04-16T02:26:51.642Z,57.08
2023-04-16T02:27:53.800Z,52.70
2023-04-16T02:28:57.028Z,55.20
2023-04-16T02:30:02.706Z,51.78
2023-04-16T02:31:04.612Z,55.35
2023-04-16T02:32:06.905Z,57.47
2023-04-16T02:33:11.926Z,52.63
2023-04-16T02:34:13.755Z,58.15
2023-04-16T02:35:15.873Z,53.92
2023-04-16T02:36:17.560Z,55.80
2023-04-16T02:37:19.565Z,54.90
2023-04-16T02:38:21.855Z,56.28
2023-04-16T02:39:23.607Z,58.28
2023-04-16T02:40:26.212Z,55.88
2023-04-16T02:41:28.199Z,59.25
2023-04-16T02:42:32.870Z,56.17
2023-04-16T02:43:36.332Z,48.88
2023-04-16T02:44:38.452Z,46.47
2023-04-16T02:45:40.397Z,50.75
2023-04-16T02:46:42.270Z,55.03
2023-04-16T02:47:43.887Z,54.78
2023-04-16T02:48:47.073Z,50.97
2023-04-16T02:49:49.024Z,54.38
2023-04-16T02:50:51.327Z,53.85
2023-04-16T02:51:54.148Z,53.45
2023-04-16T02:52:56.186Z,46.55
2023-04-16T02:53:57.920Z,43.90
2023-04-16T02:55:00.545Z,48.58
2023-04-16T02:56:02.812Z,48.15
2023-04-16T02:57:04.459Z,52.13
2023-04-16T02:58:06.057Z,51.35
2023-04-16T02:59:09.463Z,51.70
2023-04-16T03:00:11.995Z,51.20
2023-04-16T03:01:14.248Z,51.57
2023-04-16T03:02:16.598Z,48.90
2023-04-16T03:03:19.254Z,44.60
2023-04-16T03:04:21.279Z,48.17
2023-04-16T03:05:23.126Z,49.80
2023-04-16T03:06:27.286Z,50.50
2023-04-16T03:07:29.438Z,49.50
2023-04-16T03:08:32.663Z,50.80
2023-04-16T03:09:34.722Z,38.50
2023-04-16T03:10:36.787Z,46.50
2023-04-16T03:11:38.879Z,50.85
2023-04-16T03:12:41.238Z,52.67
2023-04-16T03:13:44.430Z,45.60
2023-04-16T03:14:46.190Z,49.67
2023-04-16T03:15:49.752Z,51.90
2023-04-16T03:16:52.085Z,49.38
2023-04-16T03:17:54.922Z,48.67
2023-04-16T03:18:56.642Z,51.50
2023-04-16T03:19:59.302Z,47.10
2023-04-16T03:21:01.449Z,43.03
2023-04-16T03:22:03.230Z,45.53
2023-04-16T03:23:04.873Z,45.08
2023-04-16T03:24:06.559Z,44.65
2023-04-16T03:25:09.150Z,42.83
2023-04-16T03:26:10.833Z,48.95
2023-04-16T03:27:12.840Z,49.17
2023-04-16T03:28:15.014Z,46.85
2023-04-16T03:29:16.902Z,48.92
2023-04-16T03:30:18.726Z,50.17
2023-04-16T03:31:20.894Z,42.22
2023-04-16T03:32:26.288Z,38.78
2023-04-16T03:33:28.097Z,42.00
2023-04-16T03:34:33.092Z,48.40
2023-04-16T03:35:34.850Z,50.95
2023-04-16T03:36:36.431Z,44.75
2023-04-16T03:37:38.338Z,47.33
2023-04-16T03:38:40.084Z,47.47
2023-04-16T03:39:41.762Z,47.85
2023-04-16T03:40:43.404Z,47.88
2023-04-16T03:41:45.987Z,41.38
2023-04-16T03:42:48.281Z,39.30
2023-04-16T03:43:51.623Z,44.80
2023-04-16T03:44:53.879Z,48.00
2023-04-16T03:45:55.662Z,50.35
2023-04-16T03:47:00.300Z,40.10
2023-04-16T03:48:02.198Z,49.22
2023-04-16T03:49:03.916Z,49.42
2023-04-16T03:50:06.167Z,52.00
2023-04-16T03:51:08.983Z,52.47
2023-04-16T03:52:11.982Z,46.38
2023-04-16T03:53:14.174Z,47.30
2023-04-16T03:54:15.911Z,44.67
2023-04-16T03:55:18.180Z,48.97
2023-04-16T03:56:20.358Z,50.55
2023-04-16T03:57:22.405Z,48.47
2023-04-16T03:58:24.305Z,45.30
2023-04-16T03:59:26.320Z,44.05
2023-04-16T04:00:28.304Z,44.17
2023-04-16T04:01:29.878Z,46.45
2023-04-16T04:02:31.900Z,46.78
2023-04-16T04:03:34.451Z,42.25
2023-04-16T04:04:36.299Z,48.10
2023-04-16T04:05:40.198Z,46.38
2023-04-16T04:06:41.771Z,50.88
2023-04-16T04:07:43.615Z,45.13
2023-04-16T04:08:47.059Z,41.08
2023-04-16T04:09:49.104Z,50.30
2023-04-16T04:10:51.218Z,50.22
2023-04-16T04:11:54.338Z,45.58
2023-04-16T04:12:56.035Z,48.53
2023-04-16T04:13:57.774Z,45.65
2023-04-16T04:14:59.567Z,48.70
2023-04-16T04:16:01.460Z,46.42
2023-04-16T04:17:03.302Z,41.03
2023-04-16T04:18:05.650Z,47.20
2023-04-16T04:19:07.829Z,50.75
2023-04-16T04:20:10.348Z,48.60
2023-04-16T04:21:12.198Z,41.22
2023-04-16T04:22:13.858Z,44.70
2023-04-16T04:23:15.812Z,48.42
2023-04-16T04:24:17.877Z,48.90
2023-04-16T04:25:22.714Z,49.58
2023-04-16T04:26:24.453Z,43.13
2023-04-16T04:27:26.312Z,40.67
2023-04-16T04:28:27.972Z,42.03
2023-04-16T04:29:30.892Z,42.58
2023-04-16T04:30:32.944Z,47.13
2023-04-16T04:31:35.329Z,47.00
2023-04-16T04:32:37.413Z,47.90
2023-04-16T04:33:39.271Z,50.63
2023-04-16T04:34:42.109Z,44.97
2023-04-16T04:35:44.181Z,48.05
2023-04-16T04:36:47.255Z,46.42
2023-04-16T04:37:49.235Z,49.03
2023-04-16T04:38:51.747Z,47.45
2023-04-16T04:39:55.041Z,44.83
2023-04-16T04:41:01.548Z,45.72
2023-04-16T04:42:05.938Z,48.95
2023-04-16T04:43:07.789Z,47.35
2023-04-16T04:44:09.857Z,48.00
2023-04-16T04:45:12.303Z,46.58
2023-04-16T04:46:14.319Z,43.95
2023-04-16T04:47:16.733Z,50.07
2023-04-16T04:48:19.215Z,50.33
2023-04-16T04:49:22.776Z,46.55
2023-04-16T04:50:25.866Z,47.08
2023-04-16T04:51:27.886Z,40.88
2023-04-16T04:52:30.338Z,48.38
2023-04-16T04:53:35.269Z,42.53
2023-04-16T04:54:36.988Z,44.85
2023-04-16T04:55:39.864Z,43.80
2023-04-16T04:56:41.994Z,48.78
2023-04-16T04:57:45.449Z,46.35
2023-04-16T04:58:48.007Z,43.47
2023-04-16T04:59:51.909Z,44.60
2023-04-16T05:00:55.610Z,44.80
2023-04-16T05:01:57.300Z,43.38
2023-04-16T05:03:02.750Z,47.63
2023-04-16T05:04:06.230Z,46.03
2023-04-16T05:05:08.548Z,45.60
2023-04-16T05:06:10.727Z,44.85
2023-04-16T05:07:13.800Z,49.15
2023-04-16T05:08:15.961Z,47.92
2023-04-16T05:09:17.692Z,44.15
2023-04-16T05:10:19.392Z,45.80
2023-04-16T05:11:21.373Z,48.72
2023-04-16T05:12:23.401Z,51.33
2023-04-16T05:13:25.443Z,46.30
2023-04-16T05:14:27.935Z,47.03
2023-04-16T05:15:30.281Z,46.67
2023-04-16T05:16:36.370Z,45.78
2023-04-16T05:17:39.268Z,42.70
2023-04-16T05:18:41.458Z,43.50
2023-04-16T05:19:43.141Z,43.60
2023-04-16T05:20:45.200Z,47.38
2023-04-16T05:21:47.126Z,42.25
2023-04-16T05:22:49.946Z,46.08
2023-04-16T05:23:51.602Z,46.17
2023-04-16T05:24:53.705Z,42.30
2023-04-16T05:25:55.529Z,42.88
2023-04-16T05:26:57.354Z,38.28
2023-04-16T05:27:58.926Z,44.85
2023-04-16T05:29:00.805Z,43.72
2023-04-16T05:30:03.543Z,43.28
2023-04-16T05:31:05.756Z,41.33
2023-04-16T05:32:07.803Z,41.67
2023-04-16T05:33:09.723Z,45.95
2023-04-16T05:34:13.878Z,43.33
2023-04-16T05:35:17.488Z,42.72
2023-04-16T05:36:19.525Z,40.42
2023-04-16T05:37:21.313Z,46.47
2023-04-16T05:38:23.193Z,46.50
2023-04-16T05:39:25.249Z,45.88
2023-04-16T05:40:28.095Z,44.85
2023-04-16T05:41:30.833Z,44.90
2023-04-16T05:42:33.157Z,43.22
2023-04-16T05:43:36.357Z,40.05
2023-04-16T05:44:38.334Z,40.10
2023-04-16T05:45:41.765Z,40.72
2023-04-16T05:46:43.868Z,45.55
2023-04-16T05:47:45.726Z,41.75
2023-04-16T05:48:49.171Z,44.03
2023-04-16T05:49:53.629Z,42.80
2023-04-16T05:50:55.607Z,40.92
2023-04-16T05:51:57.750Z,44.90
2023-04-16T05:52:59.676Z,41.15
2023-04-16T05:54:01.283Z,40.80
2023-04-16T05:55:03.581Z,37.42
2023-04-16T05:56:05.842Z,42.53
2023-04-16T05:57:07.835Z,42.20
2023-04-16T05:58:09.805Z,41.60
2023-04-16T05:59:11.870Z,43.38
2023-04-16T06:00:15.515Z,45.30
2023-04-16T06:01:17.442Z,41.78
2023-04-16T06:02:20.199Z,41.90
2023-04-16T06:03:22.329Z,43.75
2023-04-16T06:04:26.735Z,43.03
2023-04-16T06:05:30.161Z,43.10
2023-04-16T06:06:31.960Z,43.38
2023-04-16T06:07:33.729Z,44.53
2023-04-16T06:08:35.865Z,44.33
2023-04-16T06:09:37.615Z,47.60
2023-04-16T06:10:40.553Z,50.65
2023-04-16T06:11:42.326Z,51.80
2023-04-16T06:12:44.357Z,46.95
2023-04-16T06:13:45.951Z,48.25
2023-04-16T06:14:48.639Z,45.20
2023-04-16T06:15:50.441Z,51.38
2023-04-16T06:16:52.477Z,47.70
2023-04-16T06:17:56.137Z,46.97
2023-04-16T06:18:58.097Z,44.55
2023-04-16T06:20:00.225Z,41.58
2023-04-16T06:21:02.359Z,42.30
2023-04-16T06:22:05.763Z,34.85
2023-04-16T06:23:08.929Z,38.90
2023-04-16T06:24:13.470Z,39.72
2023-04-16T06:25:17.662Z,38.03
2023-04-16T06:26:23.336Z,38.13
2023-04-16T06:27:27.379Z,39.85
2023-04-16T06:28:31.703Z,39.65
2023-04-16T06:29:41.022Z,37.38
2023-04-16T06:30:44.641Z,39.50
2023-04-16T06:31:49.049Z,35.58
2023-04-16T06:32:52.739Z,34.85
2023-04-16T06:33:55.835Z,35.17
2023-04-16T06:34:59.438Z,38.42
2023-04-16T06:36:01.147Z,37.33
2023-04-16T06:37:02.832Z,36.58
2023-04-16T06:38:04.817Z,37.92
2023-04-16T06:39:06.930Z,40.28
2023-04-16T06:40:09.800Z,41.47
2023-04-16T06:41:12.895Z,44.65
2023-04-16T06:42:14.722Z,38.53
2023-04-16T06:43:18.203Z,36.70
2023-04-16T06:44:19.915Z,37.42
2023-04-16T06:45:21.972Z,37.40
2023-04-16T06:46:23.796Z,36.45
2023-04-16T06:47:25.672Z,35.40
2023-04-16T06:48:27.523Z,40.00
2023-04-16T06:49:29.234Z,40.97
2023-04-16T06:50:32.984Z,39.72
2023-04-16T06:51:36.266Z,37.88
2023-04-16T06:52:38.243Z,41.00
2023-04-16T06:53:40.330Z,38.78
2023-04-16T06:54:42.119Z,37.72
2023-04-16T06:55:43.816Z,38.97
2023-04-16T06:56:45.810Z,39.47
2023-04-16T06:57:47.550Z,35.78
2023-04-16T06:58:50.216Z,37.67
2023-04-16T06:59:51.972Z,39.00
2023-04-16T07:00:53.781Z,36.60
2023-04-16T07:01:55.801Z,41.30
2023-04-16T07:02:58.802Z,41.65
2023-04-16T07:04:01.068Z,41.47
2023-04-16T07:05:03.417Z,38.25
2023-04-16T07:06:05.101Z,37.30
2023-04-16T07:07:06.987Z,36.95
2023-04-16T07:08:08.789Z,40.17
2023-04-16T07:09:15.176Z,37.50
2023-04-16T07:10:17.361Z,36.83
2023-04-16T07:11:19.474Z,34.70
2023-04-16T07:12:22.874Z,31.88
2023-04-16T07:13:24.793Z,39.00
2023-04-16T07:14:26.802Z,36.65
2023-04-16T07:15:31.323Z,43.45
2023-04-16T07:16:33.148Z,37.10
2023-04-16T07:17:35.049Z,35.63
2023-04-16T07:18:37.454Z,33.63
2023-04-16T07:19:39.077Z,39.85
2023-04-16T07:20:40.814Z,40.13
2023-04-16T07:21:43.750Z,39.30
2023-04-16T07:22:45.860Z,37.40
2023-04-16T07:23:47.804Z,38.75
2023-04-16T07:24:49.748Z,36.53
2023-04-16T07:25:51.414Z,37.13
2023-04-16T07:26:53.060Z,37.05
2023-04-16T07:27:54.741Z,35.70
2023-04-16T07:28:56.774Z,38.60
2023-04-16T07:29:58.598Z,46.03
2023-04-16T07:31:02.605Z,36.47
2023-04-16T07:32:04.569Z,41.20
2023-04-16T07:33:06.669Z,39.20
2023-04-16T07:34:12.104Z,40.17
2023-04-16T07:35:14.547Z,35.75
2023-04-16T07:36:16.691Z,38.05
2023-04-16T07:37:19.468Z,33.38
2023-04-16T07:38:21.283Z,36.88
2023-04-16T07:39:23.479Z,37.90
2023-04-16T07:40:28.218Z,35.63
2023-04-16T07:41:30.276Z,39.72
2023-04-16T07:42:32.423Z,36.85
2023-04-16T07:43:34.901Z,36.95
2023-04-16T07:44:39.442Z,34.72
2023-04-16T07:45:41.553Z,37.72
2023-04-16T07:46:47.517Z,35.45
2023-04-16T07:47:49.797Z,32.58
2023-04-16T07:48:52.278Z,32.05
2023-04-16T07:49:54.038Z,33.63
2023-04-16T07:50:56.132Z,35.13
2023-04-16T07:51:58.126Z,34.65
2023-04-16T07:53:00.515Z,33.05
2023-04-16T07:54:04.041Z,32.85
2023-04-16T07:55:06.612Z,34.03
2023-04-16T07:56:08.473Z,34.78
2023-04-16T07:57:12.151Z,30.52
2023-04-16T07:58:15.591Z,32.58
2023-04-16T07:59:23.592Z,34.13
2023-04-16T08:00:28.583Z,33.10
2023-04-16T08:01:32.756Z,31.35
2023-04-16T08:02:38.427Z,32.22
2023-04-16T08:03:42.676Z,31.42
2023-04-16T08:04:45.220Z,31.50
2023-04-16T08:05:51.210Z,29.63
2023-04-16T08:06:53.803Z,31.20
2023-04-16T08:07:55.870Z,28.00
2023-04-16T08:08:57.673Z,29.63
2023-04-16T08:09:59.313Z,28.60
2023-04-16T08:11:01.979Z,28.48
2023-04-16T08:12:03.779Z,27.65
2023-04-16T08:13:06.229Z,28.65
2023-04-16T08:14:11.132Z,30.20
2023-04-16T08:15:13.289Z,28.50
2023-04-16T08:16:17.103Z,28.30
2023-04-16T08:17:19.138Z,25.77
2023-04-16T08:18:23.190Z,28.30
2023-04-16T08:19:25.070Z,28.10
2023-04-16T08:20:27.090Z,27.95
2023-04-16T08:21:29.357Z,25.65
2023-04-16T08:22:35.067Z,25.55
2023-04-16T08:23:39.568Z,28.52
2023-04-16T08:24:42.875Z,26.10
2023-04-16T08:25:44.533Z,26.95
2023-04-16T08:26:46.622Z,27.90
2023-04-16T08:27:48.649Z,27.35
2023-04-16T08:28:51.888Z,26.73
2023-04-16T08:29:54.528Z,25.40
2023-04-16T08:30:57.438Z,26.25
2023-04-16T08:32:00.004Z,28.40
2023-04-16T08:33:02.342Z,27.10
2023-04-16T08:34:05.073Z,26.45
2023-04-16T08:35:07.212Z,29.88
2023-04-16T08:36:12.630Z,25.08
2023-04-16T08:37:16.581Z,25.75
2023-04-16T08:38:18.215Z,25.35
2023-04-16T08:39:20.012Z,25.60
2023-04-16T08:40:21.914Z,28.08
2023-04-16T08:41:26.761Z,25.52
2023-04-16T08:42:34.347Z,25.98
2023-04-16T08:43:39.273Z,28.73
2023-04-16T08:44:50.251Z,27.23
2023-04-16T08:45:57.354Z,25.80
2023-04-16T08:46:59.491Z,27.20
2023-04-16T08:48:01.980Z,27.50
2023-04-16T08:49:07.480Z,26.90
2023-04-16T08:50:11.752Z,28.48
2023-04-16T08:51:17.690Z,28.27
2023-04-16T08:52:22.631Z,26.58
2023-04-16T08:53:39.141Z,28.87
2023-04-16T08:55:00.757Z,26.85
2023-04-16T08:56:06.170Z,23.58
2023-04-16T08:57:12.034Z,27.05
2023-04-16T08:58:15.200Z,25.77
2023-04-16T08:59:20.165Z,28.42
2023-04-16T09:00:22.668Z,29.23
2023-04-16T09:01:29.863Z,27.65
2023-04-16T09:02:31.950Z,29.63
2023-04-16T09:03:36.625Z,27.48
2023-04-16T09:04:40.578Z,28.27
2023-04-16T09:05:46.548Z,29.42
2023-04-16T09:06:49.799Z,34.00
2023-04-16T09:07:54.186Z,35.87
2023-04-16T09:08:58.829Z,36.57
2023-04-16T09:10:03.041Z,33.63
2023-04-16T09:11:05.890Z,28.70
2023-04-16T09:12:09.513Z,25.13
2023-04-16T09:13:15.446Z,26.53
2023-04-16T09:14:18.335Z,30.98
2023-04-16T09:15:20.920Z,28.27
2023-04-16T09:16:25.292Z,30.98
2023-04-16T09:17:27.755Z,32.70
2023-04-16T09:18:31.338Z,29.17
2023-04-16T09:19:33.417Z,23.73
2023-04-16T09:20:35.028Z,23.77
2023-04-16T09:21:39.104Z,23.37
2023-04-16T09:22:43.812Z,23.13
2023-04-16T09:23:45.866Z,22.13
2023-04-16T09:24:47.800Z,23.30
2023-04-16T09:25:52.964Z,24.00
2023-04-16T09:26:55.565Z,23.03
2023-04-16T09:27:58.206Z,22.48
2023-04-16T09:29:00.049Z,20.73
2023-04-16T09:30:02.308Z,21.87
2023-04-16T09:31:09.160Z,24.03
2023-04-16T09:32:12.571Z,20.90
2023-04-16T09:33:25.141Z,21.92
2023-04-16T09:34:27.490Z,21.45
2023-04-16T09:35:48.821Z,19.73
2023-04-16T09:36:51.001Z,23.50
2023-04-16T09:37:57.812Z,20.60
2023-04-16T09:39:00.658Z,19.77
2023-04-16T09:40:04.586Z,19.17
2023-04-16T09:41:08.296Z,18.20
2023-04-16T09:42:11.009Z,19.10
2023-04-16T09:43:15.642Z,19.37
2023-04-16T09:44:17.590Z,17.83
2023-04-16T09:45:19.239Z,19.63
2023-04-16T09:46:21.191Z,20.57
2023-04-16T09:47:23.609Z,16.93
2023-04-16T09:48:29.002Z,18.57
2023-04-16T09:49:34.412Z,20.07
2023-04-16T09:50:36.015Z,18.00
2023-04-16T09:51:42.176Z,19.63
2023-04-16T09:52:45.750Z,19.97
2023-04-16T09:53:47.579Z,20.40
2023-04-16T09:54:49.985Z,20.83
2023-04-16T09:55:51.786Z,19.63
2023-04-16T09:56:57.022Z,19.85
2023-04-16T09:58:00.945Z,18.75
2023-04-16T09:59:02.957Z,19.70
2023-04-16T10:00:10.316Z,19.73
2023-04-16T10:01:13.209Z,19.15
2023-04-16T10:02:16.438Z,19.57
2023-04-16T10:03:18.463Z,19.20
2023-04-16T10:04:20.632Z,20.63
2023-04-16T10:05:22.686Z,20.17
2023-04-16T10:06:28.218Z,21.30
2023-04-16T10:07:34.340Z,21.33
2023-04-16T10:08:36.360Z,19.90
2023-04-16T10:09:39.835Z,18.77
2023-04-16T10:10:42.015Z,20.80
2023-04-16T10:11:43.943Z,20.00
2023-04-16T10:12:45.988Z,19.03
2023-04-16T10:13:47.959Z,19.77
2023-04-16T10:14:50.440Z,19.90
2023-04-16T10:15:52.534Z,19.60
2023-04-16T10:16:56.167Z,21.13
2023-04-16T10:17:58.917Z,20.53
2023-04-16T10:19:01.032Z,20.20
2023-04-16T10:20:03.538Z,20.53
2023-04-16T10:21:05.946Z,20.80
2023-04-16T10:22:07.746Z,21.30
2023-04-16T10:23:10.120Z,19.45
2023-04-16T10:24:12.868Z,18.27
2023-04-16T10:25:14.689Z,19.63
2023-04-16T10:26:18.521Z,18.83
2023-04-16T10:27:20.934Z,20.47
2023-04-16T10:28:23.741Z,19.77
2023-04-16T10:29:27.634Z,19.10
2023-04-16T10:30:29.749Z,20.20
2023-04-16T10:31:32.161Z,19.20
2023-04-16T10:32:35.677Z,20.27
2023-04-16T10:33:40.778Z,19.07
2023-04-16T10:34:42.903Z,18.70
2023-04-16T10:35:52.258Z,19.53
2023-04-16T10:36:59.793Z,19.47
2023-04-16T10:38:27.126Z,18.60
2023-04-16T10:39:34.424Z,19.30
2023-04-16T10:40:36.175Z,19.40
2023-04-16T10:41:39.603Z,20.80
2023-04-16T10:42:41.413Z,24.00
2023-04-16T10:43:45.341Z,19.80
2023-04-16T10:44:46.945Z,20.37
2023-04-16T10:45:49.019Z,18.83
2023-04-16T10:46:50.820Z,24.20
2023-04-16T10:47:57.103Z,20.23
2023-04-16T10:49:03.709Z,21.17
2023-04-16T10:50:16.363Z,20.37
2023-04-16T10:51:31.813Z,18.38
2023-04-16T10:52:33.924Z,19.25
2023-04-16T10:53:39.537Z,18.70
2023-04-16T10:54:41.608Z,19.88
2023-04-16T10:56:05.753Z,19.77
2023-04-16T10:57:10.486Z,18.20
2023-04-16T10:58:28.160Z,18.25
2023-04-16T10:59:35.037Z,19.87
2023-04-16T11:00:55.352Z,18.17
2023-04-16T11:02:03.779Z,19.33
2023-04-16T11:03:05.562Z,17.93
2023-04-16T11:04:25.496Z,17.00
2023-04-16T11:05:46.820Z,17.77
2023-04-16T11:07:03.781Z,21.00
2023-04-16T11:08:19.071Z,20.20
2023-04-16T11:10:06.246Z,20.55
2023-04-16T11:11:08.067Z,19.00
2023-04-16T11:12:12.843Z,20.07
2023-04-16T11:13:15.865Z,19.23
2023-04-16T11:14:17.979Z,17.53
2023-04-16T11:15:19.672Z,19.50
2023-04-16T11:16:21.452Z,19.90
2023-04-16T11:17:23.465Z,19.27
2023-04-16T11:18:26.042Z,18.57
2023-04-16T11:19:28.789Z,20.60
2023-04-16T11:20:30.784Z,19.70
2023-04-16T11:21:32.672Z,20.30
2023-04-16T11:22:37.141Z,18.45
2023-04-16T11:23:57.885Z,19.10
2023-04-16T11:24:59.606Z,19.97
2023-04-16T11:26:01.250Z,19.17
2023-04-16T11:27:03.262Z,19.17
2023-04-16T11:28:05.069Z,18.40
2023-04-16T11:29:14.167Z,17.77
2023-04-16T11:30:16.058Z,16.53
2023-04-16T11:31:17.860Z,16.50
2023-04-16T11:32:22.898Z,18.67
2023-04-16T11:33:25.708Z,17.57
2023-04-16T11:34:27.500Z,18.67
2023-04-16T11:35:29.559Z,19.00
2023-04-16T11:36:50.056Z,18.20
2023-04-16T11:37:56.391Z,19.90
2023-04-16T11:39:02.816Z,21.10
2023-04-16T11:40:09.650Z,19.23
2023-04-16T11:41:11.673Z,20.93
2023-04-16T11:42:19.402Z,19.97
2023-04-16T11:43:21.063Z,19.90
2023-04-16T11:44:28.409Z,19.67
2023-04-16T11:45:30.377Z,20.00
2023-04-16T11:46:40.888Z,18.23
2023-04-16T11:47:53.003Z,18.73
2023-04-16T11:48:56.079Z,19.93
2023-04-16T11:50:05.984Z,19.70
2023-04-16T11:51:08.492Z,18.67
2023-04-16T11:52:10.284Z,19.17
2023-04-16T11:53:12.053Z,23.73
2023-04-16T11:54:21.178Z,22.10
2023-04-16T11:55:24.013Z,20.23
2023-04-16T11:56:28.567Z,19.80
2023-04-16T11:57:31.791Z,18.70
2023-04-16T11:58:33.734Z,18.63
2023-04-16T11:59:37.074Z,18.63
2023-04-16T12:01:00.427Z,19.07
2023-04-16T12:02:02.582Z,19.67
2023-04-16T12:03:05.088Z,19.60
2023-04-16T12:04:08.259Z,19.40
2023-04-16T12:05:31.821Z,19.45
2023-04-16T12:06:33.568Z,17.20
2023-04-16T12:07:46.208Z,18.53
2023-04-16T12:08:47.992Z,18.00
2023-04-16T12:09:49.750Z,19.40
2023-04-16T12:10:55.576Z,17.77
2023-04-16T12:11:57.477Z,19.17
2023-04-16T12:13:13.489Z,17.70
2023-04-16T12:14:15.361Z,19.20
2023-04-16T12:15:17.527Z,18.13
2023-04-16T12:16:20.957Z,17.80
2023-04-16T12:17:23.578Z,19.07
2023-04-16T12:18:29.217Z,17.60
2023-04-16T12:19:31.006Z,18.97
2023-04-16T12:20:41.836Z,17.60
2023-04-16T12:21:46.525Z,18.40
2023-04-16T12:22:49.735Z,17.83
2023-04-16T12:23:54.300Z,18.97
2023-04-16T12:24:58.692Z,18.77
2023-04-16T12:26:10.550Z,19.23
2023-04-16T12:27:13.039Z,16.55
2023-04-16T12:28:16.514Z,18.37
2023-04-16T12:29:24.278Z,17.27
2023-04-16T12:30:26.866Z,16.33
2023-04-16T12:31:38.424Z,16.23
2023-04-16T12:32:42.403Z,16.47
2023-04-16T12:33:44.587Z,15.63
2023-04-16T12:34:52.444Z,16.07
2023-04-16T12:35:54.909Z,15.40
2023-04-16T12:37:09.757Z,16.40
2023-04-16T12:38:11.958Z,13.80
2023-04-16T12:39:15.544Z,14.70
2023-04-16T12:40:17.403Z,14.47
2023-04-16T12:41:18.960Z,14.40
2023-04-16T12:42:21.512Z,13.95
2023-04-16T12:43:24.201Z,15.40
2023-04-16T12:44:28.016Z,13.20
2023-04-16T12:45:30.057Z,13.30
2023-04-16T12:46:31.849Z,13.27
2023-04-16T12:47:33.636Z,13.93
2023-04-16T12:48:35.358Z,13.87
2023-04-16T12:49:37.475Z,15.17
2023-04-16T12:50:40.018Z,14.50
2023-04-16T12:51:42.208Z,13.50
2023-04-16T12:52:44.198Z,14.37
2023-04-16T12:53:45.900Z,12.88
2023-04-16T12:54:47.539Z,14.07
2023-04-16T12:55:49.296Z,14.13
2023-04-16T12:56:50.915Z,13.85
2023-04-16T12:57:56.339Z,14.13
2023-04-16T12:58:57.983Z,13.07
2023-04-16T12:59:59.708Z,12.77
2023-04-16T13:01:01.396Z,14.03
2023-04-16T13:02:03.526Z,12.23
2023-04-16T13:03:05.632Z,13.03
2023-04-16T13:04:07.883Z,14.27
2023-04-16T13:05:10.172Z,12.93
2023-04-16T13:06:14.028Z,13.80
2023-04-16T13:07:16.910Z,14.57
2023-04-16T13:08:18.954Z,13.37
2023-04-16T13:09:20.567Z,12.80
2023-04-16T13:10:23.720Z,13.15
2023-04-16T13:11:25.733Z,13.70
2023-04-16T13:12:27.664Z,14.13
2023-04-16T13:13:29.577Z,13.65
2023-04-16T13:14:31.182Z,14.27
2023-04-16T13:15:32.984Z,11.60
2023-04-16T13:16:34.883Z,12.57
2023-04-16T13:17:37.250Z,13.47
2023-04-16T13:18:40.318Z,11.93
2023-04-16T13:19:42.576Z,13.40
2023-04-16T13:20:44.382Z,13.90
2023-04-16T13:21:46.362Z,13.83
2023-04-16T13:22:48.046Z,12.70
2023-04-16T13:23:49.874Z,10.80
2023-04-16T13:24:51.676Z,11.33
2023-04-16T13:25:53.466Z,10.67
2023-04-16T13:26:56.522Z,11.60
2023-04-16T13:27:58.729Z,11.97
2023-04-16T13:29:00.870Z,11.07
2023-04-16T13:30:02.536Z,10.80
2023-04-16T13:31:05.963Z,12.30
2023-04-16T13:32:07.806Z,13.40
2023-04-16T13:33:09.692Z,12.67
2023-04-16T13:34:11.604Z,11.77
2023-04-16T13:35:13.627Z,12.47
2023-04-16T13:36:15.726Z,13.17